Time;durP1;ratioP1;P1;durP2;ratioP2;P2;SDS_P1;SDS_P2;PMS_P1;PMS_P2;Temp;Humidity;BMP_temperature;BMP_pressure;BME280_temperature;BME280_humidity;BME280_pressure;Samples;Min_cycle;Max_cycle;Signal;HPM_P1;HPM_P2
2023/06/23 00:00:37;;;;;;;21.27;12.50;;;;;;;;;;6260269;28;20025;-85
2023/06/23 00:03:39;;;;;;;20.83;12.63;;;;;;;;;;6268166;28;20036;-83
2023/06/23 00:06:39;;;;;;;21.17;12.00;;;;;;;;;;6268129;28;20033;-85
2023/06/23 00:09:39;;;;;;;17.37;11.73;;;;;;;;;;6270748;28;20028;-84
2023/06/23 00:16:03;;;;;;;16.88;12.07;;;;;;;;;;6353719;27;20368;-86
2023/06/23 00:19:04;;;;;;;16.38;12.20;;;;;;;;;;6326082;28;20021;-86
2023/06/23 00:22:04;;;;;;;19.80;12.63;;;;;;;;;;6331332;28;20057;-86
2023/06/23 00:25:04;;;;;;;14.57;12.03;;;;;;;;;;6313063;28;20462;-87
2023/06/23 00:28:04;;;;;;;15.73;11.17;;;;;;;;;;6318857;28;20016;-87
2023/06/23 00:31:05;;;;;;;21.13;11.37;;;;;;;;;;6336219;28;20011;-86
2023/06/23 00:34:05;;;;;;;16.13;10.73;;;;;;;;;;6328327;28;20471;-86
2023/06/23 00:37:05;;;;;;;19.25;11.43;;;;;;;;;;6300544;28;20156;-87
2023/06/23 00:40:12;;;;;;;17.50;11.17;;;;;;;;;;6338350;28;20016;-86
2023/06/23 00:43:15;;;;;;;18.75;11.85;;;;;;;;;;6308830;28;20050;-86
2023/06/23 00:46:17;;;;;;;18.38;11.75;;;;;;;;;;6326536;28;20013;-87
2023/06/23 00:49:17;;;;;;;;;;;;;;;;;;6311469;28;20441;-86
2023/06/23 00:52:17;;;;;;;16.60;10.63;;;;;;;;;;6325949;28;19908;-86
2023/06/23 00:55:22;;;;;;;15.33;11.17;;;;;;;;;;6326817;28;20094;-86
2023/06/23 00:58:22;;;;;;;17.42;11.18;;;;;;;;;;6296464;28;20012;-86
2023/06/23 01:01:22;;;;;;;15.70;11.40;;;;;;;;;;6326316;28;20024;-87
2023/06/23 01:04:22;;;;;;;19.53;11.23;;;;;;;;;;6325743;28;20469;-87
2023/06/23 01:07:26;;;;;;;18.13;11.13;;;;;;;;;;6320279;28;20019;-87
2023/06/23 01:10:28;;;;;;;18.20;10.77;;;;;;;;;;6309786;28;20119;-86
2023/06/23 01:13:33;;;;;;;16.08;11.02;;;;;;;;;;6282222;28;20502;-86
2023/06/23 01:16:38;;;;;;;14.55;10.35;;;;;;;;;;6269388;28;20024;-87
2023/06/23 01:19:47;;;;;;;20.23;11.65;;;;;;;;;;6287155;28;20050;-88
2023/06/23 01:22:59;;;;;;;17.27;11.43;;;;;;;;;;6308140;28;20036;-88
2023/06/23 01:26:07;;;;;;;18.63;11.43;;;;;;;;;;6287110;28;20020;-88
2023/06/23 01:29:11;;;;;;;14.30;10.85;;;;;;;;;;6260184;28;20017;-89
2023/06/23 01:32:17;;;;;;;14.48;11.05;;;;;;;;;;6270946;28;20032;-86
2023/06/23 01:35:22;;;;;;;14.60;10.50;;;;;;;;;;6270089;28;20029;-86
2023/06/23 01:38:24;;;;;;;14.95;11.20;;;;;;;;;;6252772;28;20642;-86
2023/06/23 01:41:26;;;;;;;14.93;11.07;;;;;;;;;;6255035;28;20041;-86
2023/06/23 01:44:29;;;;;;;14.63;10.95;;;;;;;;;;6273403;28;20013;-87
2023/06/23 01:47:34;;;;;;;18.52;10.57;;;;;;;;;;6252933;28;20241;-86
2023/06/23 01:50:37;;;;;;;17.08;11.30;;;;;;;;;;6251907;28;20028;-87
2023/06/23 01:53:39;;;;;;;15.05;10.77;;;;;;;;;;6267142;28;20032;-86
2023/06/23 01:56:39;;;;;;;;;;;;;;;;;;6268210;28;20501;-86
2023/06/23 01:59:41;;;;;;;17.35;11.25;;;;;;;;;;6270254;28;19909;-86
2023/06/23 02:02:41;;;;;;;;;;;;;;;;;;6262489;28;20016;-87
2023/06/23 02:05:45;;;;;;;16.13;11.77;;;;;;;;;;6265121;28;19908;-87
2023/06/23 02:08:47;;;;;;;14.55;9.95;;;;;;;;;;6260578;28;20014;-86
2023/06/23 02:11:48;;;;;;;15.07;9.43;;;;;;;;;;6258803;28;20052;-86
2023/06/23 02:14:49;;;;;;;15.15;9.93;;;;;;;;;;6273694;28;20524;-86
2023/06/23 02:17:49;;;;;;;14.63;11.13;;;;;;;;;;6291687;28;20017;-86
2023/06/23 02:20:50;;;;;;;15.87;11.17;;;;;;;;;;6294068;28;20027;-86
2023/06/23 02:23:51;;;;;;;17.27;10.73;;;;;;;;;;6286741;28;20062;-86
2023/06/23 02:26:52;;;;;;;15.70;10.93;;;;;;;;;;6294550;28;20674;-86
2023/06/23 02:29:53;;;;;;;19.50;12.65;;;;;;;;;;6293848;28;20028;-86
2023/06/23 02:32:53;;;;;;;14.10;9.80;;;;;;;;;;6293634;28;20020;-86
2023/06/23 02:35:55;;;;;;;14.37;9.90;;;;;;;;;;6283331;28;20028;-86
2023/06/23 02:38:58;;;;;;;12.73;9.48;;;;;;;;;;6291078;28;20040;-87
2023/06/23 02:41:59;;;;;;;15.27;11.20;;;;;;;;;;6294683;28;20379;-86
2023/06/23 02:45:02;;;;;;;15.90;11.10;;;;;;;;;;6294332;28;20017;-86
2023/06/23 02:48:04;;;;;;;14.93;10.77;;;;;;;;;;6294293;28;20258;-86
2023/06/23 02:51:06;;;;;;;16.48;10.20;;;;;;;;;;6293357;28;20577;-86
2023/06/23 02:54:14;;;;;;;15.68;10.68;;;;;;;;;;6293994;28;20095;-86
2023/06/23 02:57:15;;;;;;;16.20;11.25;;;;;;;;;;6275451;28;20485;-86
2023/06/23 03:00:21;;;;;;;16.80;10.02;;;;;;;;;;6294137;28;20103;-86
2023/06/23 03:03:22;;;;;;;14.77;11.13;;;;;;;;;;6288736;28;20120;-86
2023/06/23 03:06:22;;;;;;;14.37;10.90;;;;;;;;;;6289909;28;20494;-86
2023/06/23 03:09:25;;;;;;;16.07;11.97;;;;;;;;;;6293476;28;20088;-86
2023/06/23 03:12:25;;;;;;;15.40;11.35;;;;;;;;;;6289533;28;20031;-86
2023/06/23 03:15:26;;;;;;;15.93;9.47;;;;;;;;;;6275902;28;20577;-86
2023/06/23 03:18:29;;;;;;;14.30;9.93;;;;;;;;;;6278013;28;20008;-86
2023/06/23 03:21:30;;;;;;;15.40;11.48;;;;;;;;;;6277627;28;20012;-86
2023/06/23 03:24:31;;;;;;;16.67;12.20;;;;;;;;;;6265832;28;20551;-86
2023/06/23 03:27:33;;;;;;;16.17;10.93;;;;;;;;;;6271480;28;20025;-86
2023/06/23 03:30:42;;;;;;;13.30;10.45;;;;;;;;;;6274660;28;20017;-85
2023/06/23 03:33:44;;;;;;;14.50;11.05;;;;;;;;;;6271037;28;20017;-86
2023/06/23 03:36:44;;;;;;;;;;;;;;;;;;6272020;28;20363;-87
2023/06/23 03:39:47;;;;;;;13.05;10.55;;;;;;;;;;6270739;28;19948;-86
2023/06/23 03:42:53;;;;;;;14.23;9.85;;;;;;;;;;6252559;28;20383;-86
2023/06/23 03:45:57;;;;;;;16.02;10.35;;;;;;;;;;6270828;28;20024;-86
2023/06/23 03:48:59;;;;;;;15.20;10.80;;;;;;;;;;6272154;28;20028;-86
2023/06/23 03:52:01;;;;;;;14.95;11.38;;;;;;;;;;6271299;28;20028;-86
2023/06/23 03:55:03;;;;;;;14.00;10.82;;;;;;;;;;6271288;28;20451;-86
2023/06/23 03:58:05;;;;;;;15.77;10.65;;;;;;;;;;6251690;28;20017;-86
2023/06/23 04:01:05;;;;;;;14.88;11.05;;;;;;;;;;6268761;28;20523;-86
2023/06/23 04:04:07;;;;;;;13.77;10.90;;;;;;;;;;6280551;28;20017;-87
2023/06/23 04:07:08;;;;;;;15.57;11.25;;;;;;;;;;6286163;28;20021;-87
2023/06/23 04:10:09;;;;;;;16.27;11.68;;;;;;;;;;6293043;28;20021;-87
2023/06/23 04:13:11;;;;;;;14.27;10.27;;;;;;;;;;6293406;28;20024;-87
2023/06/23 04:16:12;;;;;;;16.63;11.50;;;;;;;;;;6289289;28;20005;-87
2023/06/23 04:19:13;;;;;;;16.38;12.60;;;;;;;;;;6277983;28;20070;-87
2023/06/23 04:22:18;;;;;;;14.40;10.87;;;;;;;;;;6284236;28;20029;-87
2023/06/23 04:25:20;;;;;;;15.40;11.25;;;;;;;;;;6259451;28;20258;-86
2023/06/23 04:28:23;;;;;;;15.75;11.40;;;;;;;;;;6254050;28;20483;-86
2023/06/23 04:31:23;;;;;;;15.15;10.75;;;;;;;;;;6271687;28;20017;-87
2023/06/23 04:34:24;;;;;;;14.60;10.37;;;;;;;;;;6270553;28;20479;-87
2023/06/23 04:37:31;;;;;;;15.27;10.93;;;;;;;;;;6268044;28;20016;-87
2023/06/23 04:40:34;;;;;;;14.20;10.73;;;;;;;;;;6267902;28;20025;-86
2023/06/23 04:43:37;;;;;;;13.38;10.32;;;;;;;;;;6267397;28;20527;-86
2023/06/23 04:46:39;;;;;;;15.00;11.57;;;;;;;;;;6262775;28;20024;-87
2023/06/23 04:49:40;;;;;;;16.10;10.77;;;;;;;;;;6249733;28;20025;-87
2023/06/23 04:52:44;;;;;;;14.77;11.50;;;;;;;;;;6245984;28;20020;-87
2023/06/23 04:55:47;;;;;;;17.88;11.05;;;;;;;;;;6261717;28;20028;-86
2023/06/23 04:58:50;;;;;;;14.23;11.02;;;;;;;;;;6245028;28;20037;-87
2023/06/23 05:01:50;;;;;;;14.32;11.18;;;;;;;;;;6271469;28;20021;-87
2023/06/23 05:04:51;;;;;;;14.93;12.37;;;;;;;;;;6254265;28;20479;-86
2023/06/23 05:07:51;;;;;;;;;;;;;;;;;;6272293;28;20633;-86
2023/06/23 05:10:52;;;;;;;14.57;11.95;;;;;;;;;;6280977;28;19919;-88
2023/06/23 05:13:53;;;;;;;15.50;11.73;;;;;;;;;;6282489;28;20080;-88
2023/06/23 05:16:56;;;;;;;18.93;11.80;;;;;;;;;;6294973;28;20028;-89
2023/06/23 05:19:57;;;;;;;14.07;11.38;;;;;;;;;;6294675;28;20108;-89
2023/06/23 05:22:58;;;;;;;20.20;11.80;;;;;;;;;;6268719;28;20132;-89
2023/06/23 05:25:58;;;;;;;20.45;11.85;;;;;;;;;;6262392;28;20067;-88
2023/06/23 05:29:00;;;;;;;18.43;10.17;;;;;;;;;;6263691;28;20056;-89
2023/06/23 05:32:01;;;;;;;22.20;8.13;;;;;;;;;;6256049;28;20459;-89
2023/06/23 05:35:03;;;;;;;23.05;6.88;;;;;;;;;;6269367;28;20037;-90
2023/06/23 05:38:04;;;;;;;19.77;5.82;;;;;;;;;;6278052;28;20029;-90
2023/06/23 05:41:04;;;;;;;18.58;4.43;;;;;;;;;;6269522;28;20055;-90
2023/06/23 05:44:05;;;;;;;14.40;3.80;;;;;;;;;;6265586;28;20052;-90
2023/06/23 05:47:06;;;;;;;11.87;4.47;;;;;;;;;;6274875;28;20012;-90
2023/06/23 05:50:11;;;;;;;12.68;4.10;;;;;;;;;;6294584;28;20043;-87
2023/06/23 05:53:16;;;;;;;20.48;5.40;;;;;;;;;;6268096;28;20550;-90
2023/06/23 05:56:21;;;;;;;24.23;7.25;;;;;;;;;;6269876;28;20023;-88
2023/06/23 05:59:27;;;;;;;16.88;6.00;;;;;;;;;;6250594;28;20017;-89
2023/06/23 06:02:28;;;;;;;20.10;5.63;;;;;;;;;;6250145;28;20045;-88
2023/06/23 06:05:30;;;;;;;17.83;6.50;;;;;;;;;;6245174;28;20029;-88
2023/06/23 06:08:30;;;;;;;;;;;;;;;;;;6248527;28;20025;-88
2023/06/23 06:11:32;;;;;;;16.90;6.57;;;;;;;;;;6271122;28;19916;-88
2023/06/23 06:14:32;;;;;;;23.08;6.75;;;;;;;;;;6274934;28;20049;-88
2023/06/23 06:17:33;;;;;;;22.17;7.43;;;;;;;;;;6272517;28;20017;-88
2023/06/23 06:20:34;;;;;;;17.70;7.20;;;;;;;;;;6267613;28;20464;-87
2023/06/23 06:23:35;;;;;;;18.77;8.13;;;;;;;;;;6269130;28;20032;-87
2023/06/23 06:26:35;;;;;;;22.92;7.22;;;;;;;;;;6252808;28;20117;-87
2023/06/23 06:29:36;;;;;;;16.07;6.93;;;;;;;;;;6270458;28;20505;-87
2023/06/23 06:32:37;;;;;;;17.20;8.53;;;;;;;;;;6256543;28;20425;-87
2023/06/23 06:35:39;;;;;;;23.80;8.15;;;;;;;;;;6267486;28;20581;-86
2023/06/23 06:38:40;;;;;;;18.17;7.55;;;;;;;;;;6265004;28;20690;-87
2023/06/23 06:41:42;;;;;;;19.75;8.00;;;;;;;;;;6253831;28;20055;-87
2023/06/23 06:44:42;;;;;;;20.77;8.27;;;;;;;;;;6252589;28;20039;-87
2023/06/23 06:47:43;;;;;;;18.10;8.03;;;;;;;;;;6253552;28;20017;-87
2023/06/23 06:50:43;;;;;;;18.20;7.78;;;;;;;;;;6270513;28;20099;-87
2023/06/23 06:53:44;;;;;;;14.43;8.07;;;;;;;;;;6253201;28;20073;-86
2023/06/23 06:56:45;;;;;;;18.42;8.07;;;;;;;;;;6260704;28;20683;-87
2023/06/23 06:59:46;;;;;;;20.37;8.13;;;;;;;;;;6285047;28;20511;-87
2023/06/23 07:02:46;;;;;;;24.05;9.70;;;;;;;;;;6280912;28;20022;-87
2023/06/23 07:05:47;;;;;;;14.57;7.17;;;;;;;;;;6282195;28;20027;-88
2023/06/23 07:08:47;;;;;;;19.30;7.63;;;;;;;;;;6271754;28;20080;-88
2023/06/23 07:11:48;;;;;;;17.83;8.37;;;;;;;;;;6273888;28;20023;-86
2023/06/23 07:14:49;;;;;;;18.02;9.18;;;;;;;;;;6290449;28;20067;-86
2023/06/23 07:17:49;;;;;;;19.70;7.33;;;;;;;;;;6317353;28;20032;-87
2023/06/23 07:20:49;;;;;;;16.07;7.20;;;;;;;;;;6313998;28;20016;-87
2023/06/23 07:23:50;;;;;;;22.23;8.33;;;;;;;;;;6311378;28;20029;-87
2023/06/23 07:26:50;;;;;;;18.93;7.50;;;;;;;;;;6310246;28;20032;-87
2023/06/23 07:29:50;;;;;;;14.77;7.13;;;;;;;;;;6312431;28;20016;-86
2023/06/23 07:32:51;;;;;;;14.10;7.37;;;;;;;;;;6309793;28;20457;-88
2023/06/23 07:35:52;;;;;;;19.67;7.35;;;;;;;;;;6313446;28;20216;-88
2023/06/23 07:38:52;;;;;;;18.20;7.60;;;;;;;;;;6313848;28;20112;-87
2023/06/23 07:41:52;;;;;;;17.57;8.40;;;;;;;;;;6315301;28;20032;-88
2023/06/23 07:44:52;;;;;;;20.30;10.60;;;;;;;;;;6318453;28;20005;-88
2023/06/23 07:47:53;;;;;;;17.53;8.40;;;;;;;;;;6301938;28;20044;-88
2023/06/23 07:50:53;;;;;;;14.07;7.57;;;;;;;;;;6301831;28;20024;-87
2023/06/23 07:53:53;;;;;;;16.10;7.83;;;;;;;;;;6301827;28;20501;-87
2023/06/23 07:56:54;;;;;;;14.60;7.70;;;;;;;;;;6303365;28;20017;-89
2023/06/23 07:59:54;;;;;;;18.20;7.67;;;;;;;;;;6298239;28;20020;-88
2023/06/23 08:02:54;;;;;;;14.87;7.27;;;;;;;;;;6298869;28;20013;-88
2023/06/23 08:05:54;;;;;;;15.77;6.97;;;;;;;;;;6300485;28;20020;-88
2023/06/23 08:08:55;;;;;;;15.63;6.93;;;;;;;;;;6298302;28;20040;-88
2023/06/23 08:11:55;;;;;;;14.20;7.15;;;;;;;;;;6300702;28;20032;-88
2023/06/23 08:14:56;;;;;;;11.20;6.37;;;;;;;;;;6288720;28;20128;-87
2023/06/23 08:17:56;;;;;;;15.67;6.90;;;;;;;;;;6300909;28;20013;-87
2023/06/23 08:20:56;;;;;;;18.30;7.07;;;;;;;;;;6303021;28;20441;-87
2023/06/23 08:23:57;;;;;;;13.37;6.30;;;;;;;;;;6299199;28;20077;-87
2023/06/23 08:26:57;;;;;;;16.97;6.97;;;;;;;;;;6301793;28;20028;-87
2023/06/23 08:29:57;;;;;;;16.53;8.47;;;;;;;;;;6296428;28;20382;-87
2023/06/23 08:32:58;;;;;;;13.67;6.97;;;;;;;;;;6297447;28;20016;-87
2023/06/23 08:35:58;;;;;;;20.63;8.10;;;;;;;;;;6300048;28;20027;-87
2023/06/23 08:38:58;;;;;;;13.83;8.13;;;;;;;;;;6295106;28;20008;-88
2023/06/23 08:41:58;;;;;;;13.90;6.77;;;;;;;;;;6308576;28;20047;-90
2023/06/23 08:45:00;;;;;;;14.87;8.93;;;;;;;;;;6326963;28;20021;-90
2023/06/23 08:48:02;;;;;;;14.65;9.18;;;;;;;;;;6324269;28;20088;-89
2023/06/23 08:51:03;;;;;;;11.80;6.90;;;;;;;;;;6322944;28;20154;-89
2023/06/23 08:54:03;;;;;;;13.47;7.93;;;;;;;;;;6321600;28;20115;-90
2023/06/23 08:57:04;;;;;;;15.43;8.00;;;;;;;;;;6314970;28;20029;-89
2023/06/23 09:00:05;;;;;;;20.55;8.95;;;;;;;;;;6316641;28;20024;-89
2023/06/23 09:03:05;;;;;;;17.02;9.40;;;;;;;;;;6314086;28;20131;-90
2023/06/23 09:06:05;;;;;;;16.13;8.50;;;;;;;;;;6310202;28;20095;-89
2023/06/23 09:09:05;;;;;;;12.93;8.17;;;;;;;;;;6302708;28;20025;-89
2023/06/23 09:12:06;;;;;;;14.87;9.37;;;;;;;;;;6292754;28;20498;-90
2023/06/23 09:15:07;;;;;;;16.08;10.20;;;;;;;;;;6289619;28;20037;-89
2023/06/23 09:18:08;;;;;;;15.45;9.90;;;;;;;;;;6295478;28;20013;-89
2023/06/23 09:21:08;;;;;;;18.30;9.68;;;;;;;;;;6291271;28;20017;-89
2023/06/23 09:24:09;;;;;;;16.30;10.33;;;;;;;;;;6294969;28;20031;-90
2023/06/23 09:27:09;;;;;;;12.80;9.57;;;;;;;;;;6288672;28;20024;-89
2023/06/23 09:30:10;;;;;;;12.55;8.13;;;;;;;;;;6296119;28;20315;-89
2023/06/23 09:33:10;;;;;;;15.02;9.05;;;;;;;;;;6293944;28;20012;-89
2023/06/23 09:36:10;;;;;;;;;;;;;;;;;;6295779;28;20024;-90
2023/06/23 09:39:12;;;;;;;17.35;11.40;;;;;;;;;;6292057;28;19931;-88
2023/06/23 09:42:13;;;;;;;17.63;10.85;;;;;;;;;;6291503;28;20035;-89
2023/06/23 09:45:14;;;;;;;;;;;;;;;;;;6303761;28;20029;-89
2023/06/23 09:48:15;;;;;;;19.05;12.90;;;;;;;;;;6317103;28;19915;-89
2023/06/23 09:51:18;;;;;;;23.17;12.50;;;;;;;;;;6320701;28;20084;-91
2023/06/23 09:54:36;;;;;;;21.13;13.55;;;;;;;;;;6315619;28;20036;-91
2023/06/23 09:57:36;;;;;;;16.92;13.13;;;;;;;;;;6312782;28;20012;-91
2023/06/23 10:00:36;;;;;;;;;;;;;;;;;;6310550;28;20007;-92
2023/06/23 10:03:50;;;;;;;25.17;15.35;;;;;;;;;;6310765;28;19978;-93
2023/06/23 10:06:50;;;;;;;22.20;14.02;;;;;;;;;;6321998;28;20012;-91
2023/06/23 10:09:51;;;;;;;;;;;;;;;;;;6319255;28;20115;-92
2023/06/23 10:12:51;;;;;;;22.52;14.93;;;;;;;;;;6317406;28;19904;-93
2023/06/23 10:15:51;;;;;;;;;;;;;;;;;;6294686;28;20045;-91
2023/06/23 10:18:52;;;;;;;20.90;14.23;;;;;;;;;;6292468;28;19917;-92
2023/06/23 10:21:52;;;;;;;;;;;;;;;;;;6296933;28;20014;-92
2023/06/23 10:24:53;;;;;;;20.55;14.73;;;;;;;;;;6297565;28;19995;-92
2023/06/23 10:27:53;;;;;;;;;;;;;;;;;;6283315;23;20144;-79
2023/06/23 10:30:53;;;;;;;24.88;14.27;;;;;;;;;;6219460;28;19913;-79
2023/06/23 10:33:53;;;;;;;;;;;;;;;;;;6214238;28;20392;-79
2023/06/23 10:36:56;;;;;;;20.15;16.27;;;;;;;;;;6222951;28;19914;-78
2023/06/23 10:40:00;;;;;;;22.80;15.52;;;;;;;;;;6219489;28;20407;-80
2023/06/23 10:43:01;;;;;;;22.85;14.52;;;;;;;;;;6222109;28;20044;-80
2023/06/23 10:46:03;;;;;;;;;;;;;;;;;;6227738;28;20026;-79
2023/06/23 10:49:04;;;;;;;17.50;13.73;;;;;;;;;;6218705;28;19992;-79
2023/06/23 10:52:05;;;;;;;22.60;13.07;;;;;;;;;;6229483;28;20022;-80
2023/06/23 10:55:24;;;;;;;19.88;11.73;;;;;;;;;;6220567;28;20080;-80
2023/06/23 10:58:25;;;;;;;19.65;12.15;;;;;;;;;;6226776;28;20036;-80
2023/06/23 11:01:26;;;;;;;17.02;10.80;;;;;;;;;;6217362;28;20527;-75
2023/06/23 11:04:27;;;;;;;20.00;12.70;;;;;;;;;;6218625;28;20388;-74
2023/06/23 11:07:28;;;;;;;16.13;8.43;;;;;;;;;;6215317;28;20045;-75
2023/06/23 11:10:46;;;;;;;16.87;9.03;;;;;;;;;;6221090;28;20693;-74
2023/06/23 11:13:46;;;;;;;12.73;6.82;;;;;;;;;;6206048;28;20052;-82
2023/06/23 11:16:49;;;;;;;13.05;7.18;;;;;;;;;;6213426;28;20026;-82
2023/06/23 11:19:53;;;;;;;16.95;8.13;;;;;;;;;;6212705;28;20017;-80
2023/06/23 11:22:54;;;;;;;14.50;6.90;;;;;;;;;;6209706;28;20026;-79
2023/06/23 11:25:54;;;;;;;9.57;7.25;;;;;;;;;;6216312;28;20025;-80
2023/06/23 11:28:55;;;;;;;16.10;8.50;;;;;;;;;;6214535;28;20056;-81
2023/06/23 11:32:06;;;;;;;13.68;8.48;;;;;;;;;;6195426;28;20041;-80
2023/06/23 11:35:07;;;;;;;14.00;8.70;;;;;;;;;;6207794;28;20503;-80
2023/06/23 11:38:08;;;;;;;14.85;8.38;;;;;;;;;;6214651;28;20045;-80
2023/06/23 11:41:09;;;;;;;11.18;7.28;;;;;;;;;;6215980;28;20476;-80
2023/06/23 11:44:11;;;;;;;13.95;7.55;;;;;;;;;;6212285;28;20030;-80
2023/06/23 11:47:11;;;;;;;12.50;6.20;;;;;;;;;;6214164;28;20473;-80
2023/06/23 11:50:11;;;;;;;11.87;5.97;;;;;;;;;;6216273;28;20037;-81
2023/06/23 11:53:13;;;;;;;8.93;4.80;;;;;;;;;;6221062;28;20097;-80
2023/06/23 11:56:14;;;;;;;9.05;5.18;;;;;;;;;;6212855;28;20058;-79
2023/06/23 11:59:15;;;;;;;8.75;4.90;;;;;;;;;;6215763;28;20014;-80
2023/06/23 12:02:15;;;;;;;9.43;5.97;;;;;;;;;;6200604;28;20053;-76
2023/06/23 12:05:15;;;;;;;7.30;5.00;;;;;;;;;;6205551;28;20032;-76
2023/06/23 12:08:16;;;;;;;14.27;6.30;;;;;;;;;;6217269;28;20439;-76
2023/06/23 12:11:17;;;;;;;12.30;5.70;;;;;;;;;;6213789;28;20022;-77
2023/06/23 12:14:17;;;;;;;8.02;5.55;;;;;;;;;;6216741;28;20810;-81
2023/06/23 12:17:18;;;;;;;11.02;5.50;;;;;;;;;;6216859;28;20017;-80
2023/06/23 12:20:18;;;;;;;8.73;4.80;;;;;;;;;;6217205;28;20373;-79
2023/06/23 12:23:18;;;;;;;9.82;6.05;;;;;;;;;;6213416;28;20014;-79
2023/06/23 12:26:19;;;;;;;9.23;5.27;;;;;;;;;;6214016;28;20033;-78
2023/06/23 12:29:20;;;;;;;9.38;6.38;;;;;;;;;;6217429;28;20038;-78
2023/06/23 12:32:27;;;;;;;10.82;6.20;;;;;;;;;;6198162;28;20080;-76
2023/06/23 12:35:29;;;;;;;9.20;6.10;;;;;;;;;;6218125;28;20110;-78
2023/06/23 12:38:30;;;;;;;8.98;5.20;;;;;;;;;;6219031;28;20025;-77
2023/06/23 12:41:30;;;;;;;9.77;4.70;;;;;;;;;;6208493;28;20022;-77
2023/06/23 12:44:31;;;;;;;8.25;5.07;;;;;;;;;;6219413;28;20392;-79
2023/06/23 12:47:32;;;;;;;11.82;5.25;;;;;;;;;;6227094;28;20047;-78
2023/06/23 12:50:32;;;;;;;7.10;4.33;;;;;;;;;;6217262;28;20064;-79
2023/06/23 12:53:33;;;;;;;6.40;4.57;;;;;;;;;;6224815;28;20049;-79
2023/06/23 12:56:33;;;;;;;10.23;4.38;;;;;;;;;;6216353;28;20076;-79
2023/06/23 12:59:33;;;;;;;17.10;5.23;;;;;;;;;;6198108;28;20018;-79
2023/06/23 13:02:33;;;;;;;7.87;4.87;;;;;;;;;;6216068;28;20044;-79
2023/06/23 13:05:34;;;;;;;8.85;4.75;;;;;;;;;;6212274;28;20160;-80
2023/06/23 13:08:34;;;;;;;10.35;4.88;;;;;;;;;;6211341;28;20030;-80
2023/06/23 13:11:35;;;;;;;10.18;4.65;;;;;;;;;;6187359;28;20038;-79
2023/06/23 13:14:35;;;;;;;8.52;4.72;;;;;;;;;;6196055;28;20022;-80
2023/06/23 13:17:35;;;;;;;6.73;4.13;;;;;;;;;;6196633;28;20022;-79
2023/06/23 13:20:35;;;;;;;7.70;5.10;;;;;;;;;;6197667;28;20396;-79
2023/06/23 13:23:36;;;;;;;6.45;3.88;;;;;;;;;;6215619;28;20022;-79
2023/06/23 13:26:36;;;;;;;9.68;5.50;;;;;;;;;;6194717;28;20049;-79
2023/06/23 13:29:39;;;;;;;9.33;3.67;;;;;;;;;;6209419;28;20696;-79
2023/06/23 13:32:40;;;;;;;8.20;4.00;;;;;;;;;;6216031;28;20013;-75
2023/06/23 13:35:40;;;;;;;8.38;4.15;;;;;;;;;;6218297;28;20029;-75
2023/06/23 13:38:42;;;;;;;5.95;3.58;;;;;;;;;;6200870;28;20030;-75
2023/06/23 13:41:42;;;;;;;9.50;4.53;;;;;;;;;;6220459;28;20550;-75
2023/06/23 13:44:43;;;;;;;12.07;4.07;;;;;;;;;;6222369;28;20025;-75
2023/06/23 13:47:43;;;;;;;5.53;3.42;;;;;;;;;;6220991;28;20523;-75
2023/06/23 13:50:43;;;;;;;12.97;4.77;;;;;;;;;;6214861;28;20030;-75
2023/06/23 13:53:44;;;;;;;7.75;4.15;;;;;;;;;;6220209;28;20399;-80
2023/06/23 13:56:44;;;;;;;9.82;4.35;;;;;;;;;;6210377;28;20053;-79
2023/06/23 13:59:44;;;;;;;5.67;4.37;;;;;;;;;;6218761;28;20575;-79
2023/06/23 14:02:44;;;;;;;8.73;3.77;;;;;;;;;;6203724;28;20129;-79
2023/06/23 14:05:45;;;;;;;8.40;3.63;;;;;;;;;;6222376;28;20117;-79
2023/06/23 14:08:45;;;;;;;9.53;3.83;;;;;;;;;;6219658;28;20030;-80
2023/06/23 14:11:45;;;;;;;6.32;4.38;;;;;;;;;;6215642;28;20117;-79
2023/06/23 14:14:46;;;;;;;5.27;3.33;;;;;;;;;;6219973;28;20037;-79
2023/06/23 14:17:46;;;;;;;12.37;3.53;;;;;;;;;;6225249;28;20049;-80
2023/06/23 14:20:47;;;;;;;6.38;3.35;;;;;;;;;;6219976;28;20022;-79
2023/06/23 14:23:47;;;;;;;5.80;3.40;;;;;;;;;;6219810;28;20141;-79
2023/06/23 14:26:47;;;;;;;11.30;3.83;;;;;;;;;;6219264;28;20254;-79
2023/06/23 14:29:47;;;;;;;8.00;3.90;;;;;;;;;;6216656;28;20080;-80
2023/06/23 14:32:49;;;;;;;8.13;3.80;;;;;;;;;;6215581;28;20025;-80
2023/06/23 14:35:49;;;;;;;7.68;3.92;;;;;;;;;;6220503;28;20019;-81
2023/06/23 14:38:49;;;;;;;8.57;3.47;;;;;;;;;;6217596;28;20025;-80
2023/06/23 14:41:49;;;;;;;5.30;2.77;;;;;;;;;;6219030;28;20738;-81
2023/06/23 14:44:50;;;;;;;4.10;2.37;;;;;;;;;;6208725;28;20180;-80
2023/06/23 14:47:50;;;;;;;4.80;2.67;;;;;;;;;;6209558;28;20272;-79
2023/06/23 14:50:50;;;;;;;4.43;2.78;;;;;;;;;;6216205;28;20018;-80
2023/06/23 14:53:50;;;;;;;8.57;2.70;;;;;;;;;;6215249;28;20030;-81
2023/06/23 14:56:51;;;;;;;5.57;2.15;;;;;;;;;;6215080;28;20491;-80
2023/06/23 14:59:51;;;;;;;9.67;2.70;;;;;;;;;;6201315;28;20006;-80
2023/06/23 15:02:51;;;;;;;6.43;2.75;;;;;;;;;;6218178;28;20249;-80
2023/06/23 15:05:51;;;;;;;6.10;2.40;;;;;;;;;;6217485;28;20018;-79
2023/06/23 15:08:51;;;;;;;5.10;2.43;;;;;;;;;;6217075;28;20022;-80
2023/06/23 15:11:52;;;;;;;6.07;3.10;;;;;;;;;;6216509;28;20022;-79
2023/06/23 15:14:52;;;;;;;6.73;2.57;;;;;;;;;;6216710;28;20367;-79
2023/06/23 15:17:52;;;;;;;8.23;2.75;;;;;;;;;;6217183;28;20041;-80
2023/06/23 15:20:52;;;;;;;5.85;3.50;;;;;;;;;;6217972;28;20026;-80
2023/06/23 15:23:53;;;;;;;5.97;2.97;;;;;;;;;;6216362;28;20026;-80
2023/06/23 15:26:53;;;;;;;6.15;2.80;;;;;;;;;;6218508;28;20388;-80
2023/06/23 15:29:53;;;;;;;10.53;4.07;;;;;;;;;;6218856;28;20042;-79
2023/06/23 15:32:54;;;;;;;5.63;3.17;;;;;;;;;;6218449;28;20053;-80
2023/06/23 15:35:54;;;;;;;8.32;3.40;;;;;;;;;;6222437;28;20032;-80
2023/06/23 15:38:54;;;;;;;7.70;4.07;;;;;;;;;;6217863;28;20018;-80
2023/06/23 15:41:56;;;;;;;10.10;3.87;;;;;;;;;;6217458;28;20045;-80
2023/06/23 15:44:56;;;;;;;7.38;4.13;;;;;;;;;;6218072;28;20488;-80
2023/06/23 15:47:57;;;;;;;7.85;5.05;;;;;;;;;;6218380;28;20515;-79
2023/06/23 15:50:57;;;;;;;9.87;4.67;;;;;;;;;;6217589;28;20456;-80
2023/06/23 15:53:57;;;;;;;10.97;4.93;;;;;;;;;;6218040;28;20014;-80
2023/06/23 15:56:58;;;;;;;10.80;4.70;;;;;;;;;;6218354;28;20264;-80
2023/06/23 15:59:58;;;;;;;8.70;4.90;;;;;;;;;;6217575;28;20088;-80
2023/06/23 16:02:58;;;;;;;8.90;4.00;;;;;;;;;;6216899;28;20014;-81
2023/06/23 16:06:00;;;;;;;9.57;3.87;;;;;;;;;;6217799;28;20388;-80
2023/06/23 16:09:00;;;;;;;8.23;4.35;;;;;;;;;;6199525;28;20030;-81
2023/06/23 16:12:02;;;;;;;10.93;4.43;;;;;;;;;;6218147;28;20030;-78
2023/06/23 16:15:05;;;;;;;10.93;4.53;;;;;;;;;;6216921;28;20034;-80
2023/06/23 16:18:05;;;;;;;8.85;4.30;;;;;;;;;;6216818;28;20096;-82
2023/06/23 16:21:05;;;;;;;;;;;;;;;;;;6217900;28;20037;-82
2023/06/23 16:24:05;;;;;;;8.35;3.97;;;;;;;;;;6217905;28;19909;-80
2023/06/23 16:27:05;;;;;;;;;;;;;;;;;;6218327;28;20022;-80
2023/06/23 16:30:06;;;;;;;7.82;4.05;;;;;;;;;;6219742;28;19917;-81
2023/06/23 16:33:06;;;;;;;;;;;;;;;;;;6213210;28;20022;-82
2023/06/23 16:36:07;;;;;;;8.37;4.17;;;;;;;;;;6216412;28;19928;-80
2023/06/23 16:39:08;;;;;;;;;;;;;;;;;;6207008;28;20014;-80
2023/06/23 16:42:09;;;;;;;10.57;4.45;;;;;;;;;;6210025;28;20001;-81
2023/06/23 16:45:09;;;;;;;8.00;3.93;;;;;;;;;;6217118;28;20021;-81
2023/06/23 16:48:09;;;;;;;;;;;;;;;;;;6209181;28;20022;-81
2023/06/23 16:51:09;;;;;;;9.07;3.90;;;;;;;;;;6215234;28;19918;-80
2023/06/23 16:54:31;;;;;;;8.93;4.40;;;;;;;;;;6216427;28;20452;-82
2023/06/23 16:57:31;;;;;;;8.52;3.55;;;;;;;;;;6219206;28;20989;-81
2023/06/23 17:00:32;;;;;;;12.07;4.07;;;;;;;;;;6215009;28;20029;-80
2023/06/23 17:03:32;;;;;;;8.60;4.93;;;;;;;;;;6214767;28;20033;-79
2023/06/23 17:06:32;;;;;;;10.13;4.60;;;;;;;;;;6199868;28;20021;-80
2023/06/23 17:09:32;;;;;;;10.00;5.10;;;;;;;;;;6217516;28;20832;-79
2023/06/23 17:12:33;;;;;;;9.97;4.53;;;;;;;;;;6212909;28;20025;-81
2023/06/23 17:15:33;;;;;;;9.30;4.67;;;;;;;;;;6213988;28;20101;-81
2023/06/23 17:18:33;;;;;;;9.20;4.47;;;;;;;;;;6212958;28;20026;-82
2023/06/23 17:21:34;;;;;;;8.85;5.15;;;;;;;;;;6221020;28;20076;-82
2023/06/23 17:24:34;;;;;;;9.77;4.37;;;;;;;;;;6220728;28;20036;-81
2023/06/23 17:27:35;;;;;;;10.40;4.93;;;;;;;;;;6219465;28;20041;-81
2023/06/23 17:30:36;;;;;;;10.50;5.50;;;;;;;;;;6203548;28;20020;-80
2023/06/23 17:33:36;;;;;;;10.60;4.60;;;;;;;;;;6211877;28;20014;-81
2023/06/23 17:36:36;;;;;;;;;;;;;;;;;;6213951;28;20032;-81
2023/06/23 17:39:36;;;;;;;8.60;4.18;;;;;;;;;;6218824;28;19932;-80
2023/06/23 17:42:36;;;;;;;;;;;;;;;;;;6215196;28;20491;-81
2023/06/23 17:45:36;;;;;;;9.40;4.43;;;;;;;;;;6202327;28;19989;-81
2023/06/23 17:48:36;;;;;;;;;;;;;;;;;;6203085;28;20032;-80
2023/06/23 17:51:37;;;;;;;10.23;5.70;;;;;;;;;;6219975;28;19920;-80
2023/06/23 17:54:37;;;;;;;9.45;4.88;;;;;;;;;;6202237;28;20061;-81
2023/06/23 17:57:37;;;;;;;9.00;4.55;;;;;;;;;;6215317;28;20017;-80
2023/06/23 18:00:37;;;;;;;9.40;5.23;;;;;;;;;;6215581;28;20053;-81